createdAt,value
2023-06-27T00:01:48.921Z,94607.38
2023-06-27T00:04:16.588Z,94606.72
2023-06-27T00:06:43.131Z,94612.00
2023-06-27T00:09:10.822Z,94616.81
2023-06-27T00:11:40.895Z,94606.25
2023-06-27T00:14:10.052Z,94610.44
2023-06-27T00:16:37.750Z,94614.28
2023-06-27T00:19:05.041Z,94614.28
2023-06-27T00:21:33.107Z,94616.06
2023-06-27T00:24:00.415Z,94622.13
2023-06-27T00:26:28.428Z,94618.69
2023-06-27T00:28:55.670Z,94626.50
2023-06-27T00:31:22.727Z,94628.56
2023-06-27T00:33:49.502Z,94633.53
2023-06-27T00:36:17.737Z,94627.81
2023-06-27T00:38:44.326Z,94636.03
2023-06-27T00:41:10.837Z,94636.38
2023-06-27T00:43:37.472Z,94639.78
2023-06-27T00:46:07.592Z,94644.94
2023-06-27T00:48:34.546Z,94641.38
2023-06-27T00:51:01.870Z,94647.00
2023-06-27T00:53:29.768Z,94643.47
2023-06-27T00:55:57.098Z,94643.78
2023-06-27T00:58:25.767Z,94642.38
2023-06-27T01:00:52.733Z,94638.31
2023-06-27T01:03:19.934Z,94630.41
2023-06-27T01:05:47.032Z,94634.69
2023-06-27T01:08:30.751Z,94635.59
2023-06-27T01:11:20.928Z,94635.94
2023-06-27T01:13:54.273Z,94638.38
2023-06-27T01:16:23.684Z,94631.88
2023-06-27T01:18:51.927Z,94641.84
2023-06-27T01:21:21.211Z,94646.34
2023-06-27T01:23:50.745Z,94644.03
2023-06-27T01:26:17.673Z,94643.78
2023-06-27T01:28:45.736Z,94643.53
2023-06-27T01:31:21.010Z,94638.47
2023-06-27T01:33:52.509Z,94642.66
2023-06-27T01:36:26.804Z,94649.78
2023-06-27T01:39:28.705Z,94653.19
2023-06-27T01:42:01.680Z,94646.28
2023-06-27T01:44:28.895Z,94642.41
2023-06-27T01:46:55.604Z,94647.69
2023-06-27T01:49:23.174Z,94639.78
2023-06-27T01:51:51.067Z,94639.88
2023-06-27T01:54:17.508Z,94640.34
2023-06-27T01:56:44.002Z,94645.63
2023-06-27T01:59:10.530Z,94639.13
2023-06-27T02:01:37.241Z,94636.81
2023-06-27T02:04:05.359Z,94630.31
2023-06-27T02:06:31.914Z,94630.91
2023-06-27T02:08:58.531Z,94632.09
2023-06-27T02:11:24.981Z,94629.69
2023-06-27T02:13:51.465Z,94634.19
2023-06-27T02:16:18.078Z,94635.25
2023-06-27T02:18:44.768Z,94634.94
2023-06-27T02:21:12.048Z,94629.09
2023-06-27T02:23:38.649Z,94626.22
2023-06-27T02:26:06.983Z,94619.72
2023-06-27T02:28:34.813Z,94625.00
2023-06-27T02:31:04.143Z,94627.19
2023-06-27T02:33:30.705Z,94619.47
2023-06-27T02:36:01.629Z,94628.66
2023-06-27T02:38:28.096Z,94626.22
2023-06-27T02:40:55.333Z,94625.31
2023-06-27T02:43:21.796Z,94622.25
2023-06-27T02:45:48.294Z,94620.03
2023-06-27T02:48:14.728Z,94620.53
2023-06-27T02:50:41.235Z,94622.38
2023-06-27T02:53:07.721Z,94633.56
2023-06-27T02:55:34.462Z,94628.16
2023-06-27T02:58:01.566Z,94628.94
2023-06-27T03:00:29.064Z,94630.34
2023-06-27T03:02:56.566Z,94631.75
2023-06-27T03:05:23.259Z,94632.69
2023-06-27T03:07:51.369Z,94628.97
2023-06-27T03:10:18.700Z,94633.00
2023-06-27T03:12:45.180Z,94625.28
2023-06-27T03:15:11.719Z,94633.34
2023-06-27T03:17:39.432Z,94632.22
2023-06-27T03:20:09.648Z,94628.50
2023-06-27T03:22:36.170Z,94625.53
2023-06-27T03:25:02.886Z,94629.44
2023-06-27T03:27:29.347Z,94636.69
2023-06-27T03:29:57.671Z,94627.38
2023-06-27T03:32:26.670Z,94626.63
2023-06-27T03:34:53.361Z,94628.94
2023-06-27T03:37:20.499Z,94636.38
2023-06-27T03:39:47.168Z,94635.59
2023-06-27T03:42:16.274Z,94638.44
2023-06-27T03:44:42.779Z,94637.50
2023-06-27T03:47:09.373Z,94632.28
2023-06-27T03:49:37.588Z,94636.31
2023-06-27T03:52:04.360Z,94644.28
2023-06-27T03:54:30.845Z,94642.59
2023-06-27T03:56:57.342Z,94643.22
2023-06-27T03:59:24.183Z,94641.81
2023-06-27T04:01:52.173Z,94642.75
2023-06-27T04:04:18.803Z,94636.84
2023-06-27T04:06:45.344Z,94647.03
2023-06-27T04:09:11.895Z,94641.00
2023-06-27T04:11:38.413Z,94646.28
2023-06-27T04:14:05.000Z,94649.38
2023-06-27T04:16:31.503Z,94651.34
2023-06-27T04:18:58.545Z,94652.75
2023-06-27T04:21:25.172Z,94656.50
2023-06-27T04:23:55.308Z,94643.53
2023-06-27T04:26:21.970Z,94651.09
2023-06-27T04:28:48.585Z,94645.69
2023-06-27T04:31:15.837Z,94669.84
2023-06-27T04:33:42.775Z,94661.63
2023-06-27T04:36:10.353Z,94658.03
2023-06-27T04:38:41.476Z,94662.34
2023-06-27T04:41:08.712Z,94659.84
2023-06-27T04:43:37.552Z,94660.31
2023-06-27T04:46:04.550Z,94651.94
2023-06-27T04:48:31.215Z,94661.19
2023-06-27T04:50:57.739Z,94655.03
2023-06-27T04:53:25.030Z,94665.03
2023-06-27T04:55:53.338Z,94664.53
2023-06-27T04:58:20.514Z,94659.19
2023-06-27T05:00:52.876Z,94659.00
2023-06-27T05:03:22.111Z,94653.88
2023-06-27T05:05:50.167Z,94657.53
2023-06-27T05:08:17.651Z,94658.75
2023-06-27T05:10:44.546Z,94652.81
2023-06-27T05:13:13.354Z,94655.91
2023-06-27T05:15:40.341Z,94650.78
2023-06-27T05:18:06.992Z,94660.66
2023-06-27T05:20:33.582Z,94663.09
2023-06-27T05:23:00.177Z,94673.59
2023-06-27T05:25:26.677Z,94667.66
2023-06-27T05:27:53.127Z,94671.94
2023-06-27T05:30:20.066Z,94678.13
2023-06-27T05:32:46.620Z,94675.94
2023-06-27T05:35:13.137Z,94675.84
2023-06-27T05:37:39.632Z,94668.59
2023-06-27T05:40:06.765Z,94677.22
2023-06-27T05:42:33.880Z,94679.31
2023-06-27T05:45:00.400Z,94673.97
2023-06-27T05:47:26.899Z,94670.91
2023-06-27T05:49:53.591Z,94665.88
2023-06-27T05:52:21.727Z,94672.56
2023-06-27T05:54:48.263Z,94678.53
2023-06-27T05:57:14.715Z,94678.75
2023-06-27T05:59:41.180Z,94677.88
2023-06-27T06:02:07.727Z,94677.22
2023-06-27T06:04:34.278Z,94673.13
2023-06-27T06:07:00.816Z,94675.03
2023-06-27T06:09:27.440Z,94672.81
2023-06-27T06:11:53.893Z,94672.06
2023-06-27T06:14:20.353Z,94679.97
2023-06-27T06:16:46.797Z,94673.13
2023-06-27T06:19:13.383Z,94683.16
2023-06-27T06:21:40.105Z,94677.22
2023-06-27T06:24:07.171Z,94684.84
2023-06-27T06:26:33.631Z,94683.63
2023-06-27T06:29:00.072Z,94672.59
2023-06-27T06:31:26.571Z,94672.25
2023-06-27T06:33:54.299Z,94669.25
2023-06-27T06:36:20.757Z,94678.06
2023-06-27T06:38:47.234Z,94685.34
2023-06-27T06:41:14.813Z,94675.97
2023-06-27T06:43:41.268Z,94672.13
2023-06-27T06:46:08.148Z,94671.47
2023-06-27T06:48:34.655Z,94671.00
2023-06-27T06:51:01.258Z,94671.13
2023-06-27T06:53:27.755Z,94679.59
2023-06-27T06:55:54.247Z,94683.31
2023-06-27T06:58:20.709Z,94681.81
2023-06-27T07:00:47.152Z,94681.81
2023-06-27T07:03:14.758Z,94677.59
2023-06-27T07:05:44.256Z,94686.06
2023-06-27T07:08:11.124Z,94684.41
2023-06-27T07:10:38.058Z,94692.13
2023-06-27T07:13:06.412Z,94688.78
2023-06-27T07:15:33.808Z,94680.84
2023-06-27T07:18:00.579Z,94683.84
2023-06-27T07:20:27.176Z,94682.16
2023-06-27T07:22:53.709Z,94671.66
2023-06-27T07:25:20.424Z,94671.41
2023-06-27T07:27:47.077Z,94670.97
2023-06-27T07:30:14.022Z,94672.94
2023-06-27T07:32:40.602Z,94671.28
2023-06-27T07:35:07.557Z,94664.59
2023-06-27T07:37:34.011Z,94671.81
2023-06-27T07:40:00.731Z,94667.56
2023-06-27T07:42:27.563Z,94667.97
2023-06-27T07:44:54.482Z,94678.00
2023-06-27T07:47:21.307Z,94669.72
2023-06-27T07:49:47.828Z,94674.16
2023-06-27T07:52:14.369Z,94672.59
2023-06-27T07:54:40.932Z,94678.88
2023-06-27T07:57:07.515Z,94673.22
2023-06-27T07:59:34.160Z,94674.44
2023-06-27T08:02:00.659Z,94673.91
2023-06-27T08:04:27.452Z,94678.84
2023-06-27T08:06:54.436Z,94670.56
2023-06-27T08:09:23.933Z,94670.63
2023-06-27T08:11:51.468Z,94665.91
2023-06-27T08:14:18.478Z,94667.72
2023-06-27T08:16:45.012Z,94661.72
2023-06-27T08:19:11.530Z,94657.59
2023-06-27T08:21:38.010Z,94658.41
2023-06-27T08:24:04.829Z,94653.44
2023-06-27T08:26:31.303Z,94652.50
2023-06-27T08:28:57.783Z,94658.41
2023-06-27T08:31:24.505Z,94659.25
2023-06-27T08:33:51.173Z,94673.53
2023-06-27T08:36:18.010Z,94672.44
2023-06-27T08:38:44.547Z,94676.09
2023-06-27T08:41:12.065Z,94662.41
2023-06-27T08:43:40.164Z,94662.56
2023-06-27T08:46:09.667Z,94651.44
2023-06-27T08:48:40.785Z,94649.69
2023-06-27T08:51:09.340Z,94646.13
2023-06-27T08:53:37.793Z,94642.00
2023-06-27T08:56:15.344Z,94635.00
2023-06-27T08:58:51.702Z,94639.19
2023-06-27T09:01:18.850Z,94637.13
2023-06-27T09:03:45.574Z,94634.59
2023-06-27T09:06:13.422Z,94631.72
2023-06-27T09:08:40.366Z,94633.03
2023-06-27T09:11:10.942Z,94640.38
2023-06-27T09:13:38.659Z,94632.91
2023-06-27T09:16:08.852Z,94628.66
2023-06-27T09:18:37.314Z,94626.69
2023-06-27T09:21:04.336Z,94619.63
2023-06-27T09:23:31.992Z,94620.38
2023-06-27T09:26:11.090Z,94627.72
2023-06-27T09:28:52.894Z,94625.34
2023-06-27T09:31:23.250Z,94629.91
2023-06-27T09:33:52.576Z,94621.44
2023-06-27T09:39:11.743Z,94617.31
2023-06-27T09:41:46.365Z,94624.75
2023-06-27T09:44:14.724Z,94617.25
2023-06-27T09:46:43.164Z,94619.94
2023-06-27T09:49:10.330Z,94620.31
2023-06-27T09:51:37.761Z,94616.44
2023-06-27T09:54:05.193Z,94613.56
2023-06-27T09:56:33.268Z,94619.88
2023-06-27T09:59:21.902Z,94620.56
2023-06-27T10:01:52.251Z,94614.03
2023-06-27T10:04:19.163Z,94625.59
2023-06-27T10:06:45.976Z,94621.03
2023-06-27T10:09:12.750Z,94614.72
2023-06-27T10:11:40.032Z,94610.03
2023-06-27T10:14:06.765Z,94620.84
2023-06-27T10:16:33.477Z,94617.13
2023-06-27T10:19:01.501Z,94623.97
2023-06-27T10:21:30.429Z,94615.59
2023-06-27T10:24:00.218Z,94619.34
2023-06-27T10:26:27.932Z,94617.19
2023-06-27T10:28:55.469Z,94617.50
2023-06-27T10:31:50.663Z,94604.94
2023-06-27T10:34:21.676Z,94615.16
2023-06-27T10:37:02.268Z,94606.50
2023-06-27T10:39:33.493Z,94623.59
2023-06-27T10:42:04.881Z,94609.19
2023-06-27T10:44:32.893Z,94614.53
2023-06-27T10:47:17.439Z,94620.22
2023-06-27T10:49:49.992Z,94617.25
2023-06-27T10:52:26.118Z,94621.16
2023-06-27T10:55:19.354Z,94628.59
2023-06-27T10:57:49.401Z,94621.66
2023-06-27T11:00:25.019Z,94629.97
2023-06-27T11:02:55.293Z,94631.00
2023-06-27T11:05:40.543Z,94627.56
2023-06-27T11:08:10.665Z,94626.06
2023-06-27T11:10:38.143Z,94631.97
2023-06-27T11:13:17.097Z,94623.53
2023-06-27T11:15:45.347Z,94628.97
2023-06-27T11:18:16.140Z,94629.56
2023-06-27T11:20:44.173Z,94622.50
2023-06-27T11:23:12.878Z,94630.16
2023-06-27T11:25:43.614Z,94631.13
2023-06-27T11:28:12.003Z,94636.63
2023-06-27T11:30:39.677Z,94637.59
2023-06-27T11:33:08.244Z,94629.56
2023-06-27T11:35:36.561Z,94632.72
2023-06-27T11:38:07.382Z,94628.84
2023-06-27T11:40:33.976Z,94620.88
2023-06-27T11:43:04.544Z,94624.00
2023-06-27T11:45:32.185Z,94615.41
2023-06-27T11:48:02.415Z,94617.44
2023-06-27T11:50:30.152Z,94616.72
2023-06-27T11:52:58.371Z,94618.66
2023-06-27T11:55:25.685Z,94616.66
2023-06-27T11:57:57.233Z,94606.06
2023-06-27T12:00:29.693Z,94606.13
2023-06-27T12:02:58.214Z,94600.59
2023-06-27T12:05:26.016Z,94603.66
2023-06-27T12:08:05.854Z,94601.00
2023-06-27T12:10:33.892Z,94603.34
2023-06-27T12:13:06.248Z,94593.22
2023-06-27T12:15:44.440Z,94594.19
2023-06-27T12:18:12.392Z,94604.66
2023-06-27T12:20:43.445Z,94592.09
2023-06-27T12:23:10.949Z,94587.19
2023-06-27T12:25:40.261Z,94586.53
2023-06-27T12:28:07.825Z,94583.63
2023-06-27T12:30:35.089Z,94572.56
2023-06-27T12:33:02.238Z,94580.06
2023-06-27T12:35:28.925Z,94577.16
2023-06-27T12:37:55.849Z,94571.75
2023-06-27T12:40:24.063Z,94570.59
2023-06-27T12:42:51.652Z,94566.72
2023-06-27T12:45:21.911Z,94567.03
2023-06-27T12:47:48.940Z,94560.13
2023-06-27T12:50:17.985Z,94564.69
2023-06-27T12:52:48.733Z,94569.19
2023-06-27T12:55:16.622Z,94564.25
2023-06-27T12:57:43.964Z,94559.28
2023-06-27T13:00:11.240Z,94561.59
2023-06-27T13:02:39.058Z,94560.38
2023-06-27T13:05:06.953Z,94546.47
2023-06-27T13:07:34.676Z,94558.06
2023-06-27T13:10:04.565Z,94555.47
2023-06-27T13:12:31.403Z,94542.47
2023-06-27T13:14:57.849Z,94540.13
2023-06-27T13:17:24.484Z,94545.88
2023-06-27T13:19:51.651Z,94553.72
2023-06-27T13:22:18.219Z,94535.16
2023-06-27T13:24:44.985Z,94536.03
2023-06-27T13:27:11.479Z,94539.19
2023-06-27T13:29:38.019Z,94543.25
2023-06-27T13:32:05.072Z,94539.81
2023-06-27T13:34:31.579Z,94540.59
2023-06-27T13:36:58.095Z,94541.28
2023-06-27T13:39:24.603Z,94533.53
2023-06-27T13:41:51.134Z,94545.47
2023-06-27T13:44:17.646Z,94541.47
2023-06-27T13:46:44.341Z,94531.44
2023-06-27T13:49:11.012Z,94521.69
2023-06-27T13:51:37.556Z,94526.53
2023-06-27T13:54:04.485Z,94519.34
2023-06-27T13:56:31.045Z,94518.72
2023-06-27T13:58:59.294Z,94514.63
2023-06-27T14:01:26.860Z,94509.41
2023-06-27T14:03:53.646Z,94512.09
2023-06-27T14:06:20.336Z,94510.97
2023-06-27T14:08:46.801Z,94507.16
2023-06-27T14:11:15.329Z,94499.84
2023-06-27T14:13:46.387Z,94512.09
2023-06-27T14:16:13.480Z,94501.00
2023-06-27T14:18:40.025Z,94506.75
2023-06-27T14:21:09.656Z,94505.63
2023-06-27T14:23:40.854Z,94502.19
2023-06-27T14:26:10.046Z,94507.91
2023-06-27T14:28:36.529Z,94497.59
2023-06-27T14:31:04.303Z,94495.31
2023-06-27T14:33:30.920Z,94493.38
2023-06-27T14:35:57.566Z,94497.59
2023-06-27T14:38:24.033Z,94502.19
2023-06-27T14:40:50.895Z,94498.75
2023-06-27T14:43:19.330Z,94502.97
2023-06-27T14:45:45.963Z,94497.19
2023-06-27T14:48:12.481Z,94496.75
2023-06-27T14:50:39.081Z,94499.47
2023-06-27T14:53:07.198Z,94489.19
2023-06-27T14:55:33.817Z,94475.81
2023-06-27T14:58:01.365Z,94490.72
2023-06-27T15:00:28.154Z,94483.81
2023-06-27T15:02:54.713Z,94483.72
2023-06-27T15:05:21.454Z,94485.56
2023-06-27T15:07:48.047Z,94473.28
2023-06-27T15:10:14.531Z,94473.16
2023-06-27T15:12:41.250Z,94476.22
2023-06-27T15:15:08.446Z,94482.47
2023-06-27T15:17:35.145Z,94464.28
2023-06-27T15:20:02.704Z,94463.56
2023-06-27T15:22:29.556Z,94466.97
2023-06-27T15:24:56.116Z,94471.53
2023-06-27T15:27:23.063Z,94468.09
2023-06-27T15:29:49.762Z,94464.31
2023-06-27T15:32:16.418Z,94462.34
2023-06-27T15:34:44.674Z,94462.59
2023-06-27T15:37:11.595Z,94455.88
2023-06-27T15:39:38.974Z,94452.91
2023-06-27T15:42:07.102Z,94458.47
2023-06-27T15:44:35.935Z,94458.69
2023-06-27T15:47:02.772Z,94457.81
2023-06-27T15:49:29.270Z,94465.00
2023-06-27T15:51:55.729Z,94458.22
2023-06-27T15:54:22.218Z,94452.63
2023-06-27T15:56:48.732Z,94453.09
2023-06-27T15:59:15.950Z,94447.78
2023-06-27T16:01:44.279Z,94453.84
2023-06-27T16:04:11.030Z,94442.81
2023-06-27T16:06:37.633Z,94431.78
2023-06-27T16:09:04.954Z,94435.78
2023-06-27T16:11:32.813Z,94438.16
2023-06-27T16:13:59.701Z,94425.28
2023-06-27T16:16:26.411Z,94421.22
2023-06-27T16:18:52.895Z,94429.47
2023-06-27T16:21:19.617Z,94434.75
2023-06-27T16:23:46.552Z,94424.06
2023-06-27T16:26:13.319Z,94426.41
2023-06-27T16:28:40.088Z,94421.13
2023-06-27T16:31:06.800Z,94432.22
2023-06-27T16:33:33.395Z,94437.53
2023-06-27T16:35:59.931Z,94434.53
2023-06-27T16:38:26.430Z,94425.22
2023-06-27T16:40:52.958Z,94418.56
2023-06-27T16:43:19.393Z,94424.63
2023-06-27T16:45:45.854Z,94421.13
2023-06-27T16:48:12.401Z,94423.31
2023-06-27T16:50:39.161Z,94431.88
2023-06-27T16:53:08.777Z,94421.81
2023-06-27T16:55:35.255Z,94432.66
2023-06-27T16:58:01.708Z,94428.78
2023-06-27T17:00:28.179Z,94428.84
2023-06-27T17:02:54.845Z,94422.38
2023-06-27T17:05:21.390Z,94422.09
2023-06-27T17:07:48.952Z,94416.41
2023-06-27T17:10:15.577Z,94424.91
2023-06-27T17:12:42.070Z,94419.25
2023-06-27T17:15:09.087Z,94407.44
2023-06-27T17:17:35.612Z,94409.72
2023-06-27T17:20:02.126Z,94413.81
2023-06-27T17:22:29.352Z,94408.13
2023-06-27T17:24:55.847Z,94416.81
2023-06-27T17:27:22.403Z,94414.25
2023-06-27T17:29:48.891Z,94426.63
2023-06-27T17:32:16.614Z,94419.22
2023-06-27T17:34:43.048Z,94419.38
2023-06-27T17:37:09.560Z,94426.34
2023-06-27T17:39:36.038Z,94421.09
2023-06-27T17:42:02.506Z,94414.31
2023-06-27T17:44:29.036Z,94416.53
2023-06-27T17:46:55.522Z,94417.13
2023-06-27T17:49:24.960Z,94413.78
2023-06-27T17:51:52.738Z,94406.34
2023-06-27T17:54:19.244Z,94410.38
2023-06-27T17:56:47.700Z,94410.25
2023-06-27T17:59:14.393Z,94399.56
2023-06-27T18:01:40.976Z,94399.56
2023-06-27T18:04:07.583Z,94396.47
2023-06-27T18:06:34.076Z,94406.19
2023-06-27T18:09:00.523Z,94409.06
2023-06-27T18:11:29.856Z,94411.88
2023-06-27T18:13:56.557Z,94399.56
2023-06-27T18:16:24.283Z,94411.63
2023-06-27T18:18:50.804Z,94404.66
2023-06-27T18:21:17.251Z,94413.66
2023-06-27T18:23:43.771Z,94402.09
2023-06-27T18:26:10.234Z,94397.75
2023-06-27T18:28:36.725Z,94400.19
2023-06-27T18:31:03.926Z,94400.84
2023-06-27T18:33:30.741Z,94400.38
2023-06-27T18:35:59.134Z,94402.94
2023-06-27T18:38:28.766Z,94402.53
2023-06-27T18:40:55.358Z,94410.84
2023-06-27T18:43:21.828Z,94408.19
2023-06-27T18:45:48.309Z,94410.03
2023-06-27T18:48:15.663Z,94412.97
2023-06-27T18:50:42.419Z,94417.78
2023-06-27T18:53:09.096Z,94415.84
2023-06-27T18:55:35.557Z,94417.63
2023-06-27T18:58:02.212Z,94409.91
2023-06-27T19:00:29.356Z,94416.63
2023-06-27T19:02:55.866Z,94415.69
2023-06-27T19:05:22.402Z,94422.75
2023-06-27T19:07:48.953Z,94424.47
2023-06-27T19:10:16.418Z,94420.47
2023-06-27T19:12:42.933Z,94421.88
2023-06-27T19:15:09.890Z,94421.38
2023-06-27T19:17:36.494Z,94427.28
2023-06-27T19:20:04.238Z,94424.06
2023-06-27T19:22:31.182Z,94431.88
2023-06-27T19:24:57.745Z,94435.88
2023-06-27T19:27:24.203Z,94436.84
2023-06-27T19:29:50.734Z,94439.75
2023-06-27T19:32:17.265Z,94439.16
2023-06-27T19:34:43.749Z,94447.09
2023-06-27T19:37:10.307Z,94450.00
2023-06-27T19:39:37.149Z,94447.34
2023-06-27T19:42:03.892Z,94451.47
2023-06-27T19:44:30.344Z,94452.88
2023-06-27T19:46:56.799Z,94456.53
2023-06-27T19:49:23.316Z,94462.19
2023-06-27T19:51:49.820Z,94460.97
2023-06-27T19:54:16.310Z,94468.50
2023-06-27T19:56:42.942Z,94478.31
2023-06-27T19:59:09.502Z,94468.72
2023-06-27T20:01:36.107Z,94471.31
2023-06-27T20:04:03.732Z,94475.06
2023-06-27T20:06:30.292Z,94473.50
2023-06-27T20:08:56.737Z,94468.91
2023-06-27T20:11:23.536Z,94470.69
2023-06-27T20:13:50.077Z,94464.22
2023-06-27T20:16:16.565Z,94457.31
2023-06-27T20:18:43.124Z,94460.94
2023-06-27T20:21:09.660Z,94464.19
2023-06-27T20:23:36.086Z,94459.59
2023-06-27T20:26:03.769Z,94471.25
2023-06-27T20:28:30.293Z,94465.13
2023-06-27T20:30:57.996Z,94459.75
2023-06-27T20:33:24.457Z,94462.28
2023-06-27T20:35:51.032Z,94460.31
2023-06-27T20:38:18.376Z,94454.59
2023-06-27T20:40:45.055Z,94469.00
2023-06-27T20:43:11.672Z,94469.44
2023-06-27T20:45:38.253Z,94480.78
2023-06-27T20:48:05.079Z,94474.41
2023-06-27T20:50:31.537Z,94477.72
2023-06-27T20:52:58.172Z,94491.78
2023-06-27T20:55:24.801Z,94484.53
2023-06-27T20:57:51.243Z,94499.63
2023-06-27T21:00:18.090Z,94507.56
2023-06-27T21:02:44.627Z,94505.69
2023-06-27T21:05:11.179Z,94498.06
2023-06-27T21:07:37.821Z,94495.78
2023-06-27T21:10:04.611Z,94488.19
2023-06-27T21:12:31.117Z,94479.06
2023-06-27T21:14:58.156Z,94468.84
2023-06-27T21:17:27.791Z,94479.72
2023-06-27T21:19:54.351Z,94470.19
2023-06-27T21:22:20.968Z,94467.00
2023-06-27T21:24:47.468Z,94472.28
2023-06-27T21:27:13.966Z,94472.97
2023-06-27T21:29:40.430Z,94477.78
2023-06-27T21:32:07.461Z,94473.94
2023-06-27T21:34:33.955Z,94479.91
2023-06-27T21:37:00.439Z,94481.00
2023-06-27T21:39:27.132Z,94475.38
2023-06-27T21:41:53.619Z,94479.97
2023-06-27T21:44:20.083Z,94468.97
2023-06-27T21:46:46.523Z,94472.03
2023-06-27T21:49:12.978Z,94468.31
2023-06-27T21:51:39.440Z,94458.53
2023-06-27T21:54:05.906Z,94462.59
2023-06-27T21:56:32.346Z,94456.91
2023-06-27T21:58:58.785Z,94458.00
2023-06-27T22:01:26.030Z,94459.44
2023-06-27T22:03:52.697Z,94465.69
2023-06-27T22:06:22.770Z,94452.50
2023-06-27T22:08:57.197Z,94452.94
2023-06-27T22:11:23.638Z,94463.06
2023-06-27T22:13:50.075Z,94468.69
2023-06-27T22:16:17.265Z,94461.88
2023-06-27T22:18:45.409Z,94458.03
2023-06-27T22:21:11.975Z,94461.31
2023-06-27T22:23:38.446Z,94462.00
2023-06-27T22:26:04.882Z,94456.41
2023-06-27T22:28:31.297Z,94467.72
2023-06-27T22:30:57.817Z,94467.28
2023-06-27T22:33:24.278Z,94467.97
2023-06-27T22:35:50.694Z,94468.63
2023-06-27T22:38:18.592Z,94461.38
2023-06-27T22:40:45.070Z,94463.25
2023-06-27T22:43:11.528Z,94465.78
2023-06-27T22:45:38.822Z,94470.63
2023-06-27T22:48:05.781Z,94472.84
2023-06-27T22:50:32.269Z,94466.34
2023-06-27T22:52:59.289Z,94459.88
2023-06-27T22:55:25.816Z,94454.59
2023-06-27T22:57:52.274Z,94454.59
2023-06-27T23:00:19.157Z,94454.59
2023-06-27T23:02:45.721Z,94457.56
2023-06-27T23:05:12.270Z,94457.13
2023-06-27T23:07:39.177Z,94453.59
2023-06-27T23:10:06.585Z,94458.78
2023-06-27T23:12:33.318Z,94456.38
2023-06-27T23:15:00.604Z,94458.56
2023-06-27T23:17:27.094Z,94457.78
2023-06-27T23:19:53.564Z,94450.88
2023-06-27T23:22:20.869Z,94451.44
2023-06-27T23:24:47.564Z,94461.25
2023-06-27T23:27:14.388Z,94445.97
2023-06-27T23:29:41.853Z,94449.44
2023-06-27T23:32:09.404Z,94451.97
2023-06-27T23:34:35.903Z,94458.91
2023-06-27T23:37:02.565Z,94456.50
2023-06-27T23:39:29.124Z,94454.16
2023-06-27T23:41:55.996Z,94451.09
2023-06-27T23:44:22.570Z,94457.91
2023-06-27T23:46:49.106Z,94445.81
2023-06-27T23:49:15.693Z,94447.69
2023-06-27T23:51:42.198Z,94447.38
2023-06-27T23:54:08.644Z,94442.97
2023-06-27T23:56:35.138Z,94440.78
2023-06-27T23:59:01.820Z,94432.41
